createdAt,value
2018-11-22T12:17:49.928Z,33.98
2018-11-22T12:20:18.633Z,35.52
2018-11-22T12:22:48.239Z,38.10
2018-11-22T12:25:17.908Z,35.23
2018-11-22T12:27:47.465Z,35.05
2018-11-22T12:30:17.732Z,36.40
2018-11-22T12:32:51.200Z,34.27
2018-11-22T12:35:24.842Z,34.13
2018-11-22T12:37:58.549Z,34.58
2018-11-22T12:40:26.829Z,35.08
2018-11-22T12:42:55.144Z,34.55
2018-11-22T12:45:23.475Z,46.00
2018-11-22T12:47:51.706Z,33.98
2018-11-22T12:50:20.009Z,34.33
2018-11-22T12:52:48.264Z,37.15
2018-11-22T12:55:16.539Z,36.30
2018-11-22T12:57:46.060Z,33.98
2018-11-22T13:00:15.515Z,35.23
2018-11-22T13:02:44.007Z,36.30
2018-11-22T13:05:13.475Z,33.98
2018-11-22T13:07:41.815Z,34.30
2018-11-22T13:10:12.223Z,35.33
2018-11-22T13:12:41.084Z,36.50
2018-11-22T13:15:10.972Z,35.58
2018-11-22T13:17:39.374Z,34.92
2018-11-22T13:20:10.746Z,35.63
2018-11-22T13:22:39.120Z,35.50
2018-11-22T13:25:09.400Z,36.73
2018-11-22T13:27:37.791Z,36.60
2018-11-22T13:30:09.634Z,38.60
2018-11-22T13:32:37.862Z,36.60
2018-11-22T13:35:07.893Z,37.53
2018-11-22T13:37:36.117Z,42.62
2018-11-22T13:40:05.287Z,33.40
2018-11-22T13:42:33.810Z,36.60
2018-11-22T13:45:06.265Z,38.07
2018-11-22T13:47:34.657Z,37.90
2018-11-22T13:50:02.900Z,38.85
2018-11-22T13:52:37.084Z,38.58
2018-11-22T14:12:17.184Z,37.95
2018-11-22T14:14:45.380Z,37.48
2018-11-22T14:17:13.641Z,40.58
2018-11-22T14:19:41.950Z,43.40
2018-11-22T14:22:10.196Z,43.00
2018-11-22T14:24:38.469Z,45.45
2018-11-22T14:27:06.704Z,44.23
2018-11-22T14:29:35.117Z,42.90
2018-11-22T14:32:03.425Z,46.28
2018-11-22T14:34:31.637Z,44.05
2018-11-22T14:36:59.852Z,46.50
2018-11-22T14:39:28.183Z,43.40
2018-11-22T14:41:57.010Z,41.08
2018-11-22T14:44:25.181Z,41.35
2018-11-22T14:46:53.406Z,40.85
2018-11-22T14:49:21.891Z,42.75
2018-11-22T14:51:51.265Z,39.13
2018-11-22T14:54:19.494Z,44.08
2018-11-22T14:56:47.813Z,42.85
2018-11-22T14:59:16.141Z,40.23
2018-11-22T15:01:44.366Z,39.77
2018-11-22T15:04:12.635Z,40.08
2018-11-22T15:06:40.921Z,37.00
2018-11-22T15:09:09.800Z,43.23
2018-11-22T15:11:38.226Z,39.78
2018-11-22T15:14:06.772Z,39.18
2018-11-22T15:16:35.059Z,37.55
2018-11-22T15:19:03.389Z,38.53
2018-11-22T15:21:31.700Z,38.92
2018-11-22T15:23:59.948Z,37.73
2018-11-22T15:26:28.246Z,39.13
2018-11-22T15:28:56.458Z,39.40
2018-11-22T15:31:24.673Z,39.30
2018-11-22T15:33:53.000Z,40.28
2018-11-22T15:36:21.239Z,38.58
2018-11-22T15:38:49.517Z,41.15
2018-11-22T15:41:17.770Z,38.23
2018-11-22T15:43:45.981Z,40.63
2018-11-22T15:46:14.351Z,39.40
2018-11-22T15:48:42.596Z,40.25
2018-11-22T15:51:10.992Z,40.30
2018-11-22T15:53:39.254Z,37.53
2018-11-22T15:56:07.484Z,38.80
2018-11-22T15:58:35.738Z,38.58
2018-11-22T16:01:04.050Z,37.70
2018-11-22T16:03:32.312Z,38.80
2018-11-22T16:06:00.625Z,39.20
2018-11-22T16:08:28.903Z,39.05
2018-11-22T16:10:58.144Z,39.10
2018-11-22T16:13:26.475Z,46.53
2018-11-22T16:15:55.345Z,36.28
2018-11-22T16:18:23.565Z,38.05
2018-11-22T16:20:51.869Z,38.90
2018-11-22T16:23:20.133Z,38.00
2018-11-22T16:25:48.434Z,37.03
2018-11-22T16:28:16.769Z,37.13
2018-11-22T16:30:45.047Z,37.58
2018-11-22T16:33:13.255Z,37.50
2018-11-22T16:35:41.530Z,38.58
2018-11-22T16:38:09.876Z,40.28
2018-11-22T16:40:38.249Z,37.73
2018-11-22T16:43:06.757Z,39.20
2018-11-22T16:45:36.444Z,38.95
2018-11-22T16:48:07.195Z,39.03
2018-11-22T16:50:36.620Z,37.98
2018-11-22T16:53:05.394Z,37.78
2018-11-22T16:55:33.651Z,38.05
2018-11-22T16:58:02.555Z,36.93
2018-11-22T17:00:33.082Z,39.88
2018-11-22T17:03:03.511Z,38.30
2018-11-22T17:05:31.969Z,37.58
2018-11-22T17:08:01.171Z,38.08
2018-11-22T17:10:30.410Z,38.83
2018-11-22T17:12:59.691Z,37.75
2018-11-22T17:15:29.675Z,38.13
2018-11-22T17:17:58.459Z,37.28
2018-11-22T17:20:27.593Z,38.05
2018-11-22T17:22:55.973Z,39.33
2018-11-22T17:25:25.665Z,38.85
2018-11-22T17:27:55.488Z,39.87
2018-11-22T17:30:25.511Z,42.07
2018-11-22T17:32:53.746Z,39.75
2018-11-22T17:35:23.412Z,40.58
2018-11-22T17:37:52.000Z,39.00
2018-11-22T17:40:24.462Z,39.42
2018-11-22T17:42:53.081Z,40.50
2018-11-22T17:45:21.867Z,39.33
2018-11-22T17:47:50.355Z,41.18
2018-11-22T17:50:18.713Z,39.73
2018-11-22T17:52:47.165Z,42.43
2018-11-22T17:55:17.400Z,43.80
2018-11-22T17:57:45.740Z,40.28
2018-11-22T18:00:16.621Z,40.40
2018-11-22T18:02:46.365Z,47.60
2018-11-22T18:05:14.733Z,43.07
2018-11-22T18:07:43.183Z,42.93
2018-11-22T18:10:13.808Z,41.75
2018-11-22T18:12:43.383Z,42.55
2018-11-22T18:15:13.205Z,42.90
2018-11-22T18:17:41.458Z,41.80
2018-11-22T18:20:13.368Z,41.20
2018-11-22T18:22:41.894Z,44.17
2018-11-22T18:25:12.746Z,43.83
2018-11-22T18:27:41.088Z,44.55
2018-11-22T18:30:13.138Z,43.25
2018-11-22T18:32:41.576Z,43.98
2018-11-22T18:35:11.290Z,43.10
2018-11-22T18:37:39.595Z,44.77
2018-11-22T18:40:12.826Z,44.00
2018-11-22T18:42:41.059Z,43.85
2018-11-22T18:45:10.996Z,43.95
2018-11-22T18:47:39.557Z,43.15
2018-11-22T18:50:15.646Z,43.20
2018-11-22T18:52:40.042Z,44.13
2018-11-22T18:55:08.938Z,43.78
2018-11-22T18:57:37.418Z,43.60
2018-11-22T19:00:10.097Z,43.05
2018-11-22T19:02:38.370Z,45.10
2018-11-22T19:05:07.449Z,47.05
2018-11-22T19:07:35.675Z,43.90
2018-11-22T19:10:04.330Z,43.25
2018-11-22T19:12:32.596Z,52.23
2018-11-22T19:15:01.363Z,46.25
2018-11-22T19:17:29.617Z,44.53
2018-11-22T19:19:57.836Z,46.00
2018-11-22T19:22:26.046Z,44.60
2018-11-22T19:24:54.386Z,43.95
2018-11-22T19:27:22.607Z,45.58
2018-11-22T19:29:50.906Z,44.48
2018-11-22T19:32:19.197Z,45.63
2018-11-22T19:34:47.462Z,45.25
2018-11-22T19:37:15.736Z,45.35
2018-11-22T19:39:44.561Z,46.58
2018-11-22T19:42:12.878Z,47.38
2018-11-22T19:44:41.416Z,45.43
2018-11-22T19:47:10.231Z,42.25
2018-11-22T19:49:38.435Z,42.60
2018-11-22T19:52:06.685Z,44.13
2018-11-22T19:54:34.981Z,39.42
2018-11-22T19:57:03.538Z,40.65
2018-11-22T19:59:31.860Z,38.13
2018-11-22T20:02:00.049Z,39.73
2018-11-22T20:04:28.301Z,37.80
2018-11-22T20:06:56.574Z,40.12
2018-11-22T20:09:24.988Z,38.90
2018-11-22T20:11:53.332Z,40.52
2018-11-22T20:14:21.641Z,41.23
2018-11-22T20:16:49.882Z,40.63
2018-11-22T20:19:18.116Z,41.18
2018-11-22T20:21:46.532Z,42.80
2018-11-22T20:24:14.810Z,41.75
2018-11-22T20:26:43.062Z,42.00
2018-11-22T20:29:11.402Z,41.37
2018-11-22T20:31:39.681Z,40.60
2018-11-22T20:34:07.919Z,39.20
2018-11-22T20:36:36.214Z,41.37
2018-11-22T20:39:07.707Z,39.85
2018-11-22T20:41:35.986Z,38.67
2018-11-22T20:44:04.768Z,41.50
2018-11-22T20:46:33.066Z,40.60
2018-11-22T20:49:01.361Z,40.10
2018-11-22T20:51:29.604Z,38.75
2018-11-22T21:28:37.124Z,38.40
2018-11-22T21:31:05.528Z,37.53
2018-11-22T21:33:34.723Z,38.60
2018-11-22T21:36:02.184Z,38.58
2018-11-22T21:38:30.515Z,37.13
2018-11-22T21:40:58.938Z,35.10
2018-11-22T21:43:27.214Z,34.70
2018-11-22T21:45:55.513Z,34.35
2018-11-22T21:48:24.154Z,35.52
2018-11-22T21:50:52.975Z,38.63
2018-11-22T21:53:21.817Z,36.05
2018-11-22T21:55:50.088Z,33.63
2018-11-22T21:58:18.358Z,33.50
2018-11-22T22:00:46.674Z,32.23
2018-11-22T22:03:14.958Z,36.10
2018-11-22T22:05:43.170Z,34.78
2018-11-22T22:08:11.395Z,33.53
2018-11-22T22:10:39.665Z,33.53
2018-11-22T22:13:07.962Z,31.40
2018-11-22T22:15:37.150Z,32.03
2018-11-22T22:18:06.432Z,62.10
2018-11-22T22:20:35.572Z,30.77
2018-11-22T22:23:03.792Z,31.60
2018-11-22T22:25:32.261Z,31.97
2018-11-22T22:28:00.871Z,31.62
2018-11-22T22:30:30.744Z,29.55
2018-11-22T22:33:00.641Z,30.85
2018-11-22T22:35:28.896Z,28.85
2018-11-22T22:37:57.146Z,31.90
2018-11-22T22:40:26.592Z,29.32
2018-11-22T22:42:55.841Z,29.52
2018-11-22T22:45:25.865Z,32.20
2018-11-22T22:47:55.096Z,29.90
2018-11-22T22:50:24.948Z,30.80
2018-11-22T22:52:54.586Z,30.48
2018-11-22T22:55:23.197Z,30.30
2018-11-22T22:57:51.447Z,29.52
2018-11-22T23:00:26.056Z,30.43
2018-11-22T23:02:56.417Z,29.10
2018-11-22T23:05:25.450Z,29.25
2018-11-22T23:07:53.850Z,32.15
2018-11-22T23:10:22.559Z,31.02
2018-11-22T23:12:51.041Z,30.72
2018-11-22T23:15:19.963Z,30.62
2018-11-22T23:17:48.291Z,29.10
2018-11-22T23:20:19.340Z,30.83
2018-11-22T23:22:48.031Z,32.45
2018-11-22T23:25:17.114Z,31.90
2018-11-22T23:27:45.370Z,28.42
2018-11-22T23:30:16.201Z,32.05
2018-11-22T23:32:45.811Z,30.62
2018-11-22T23:35:14.056Z,30.80
2018-11-22T23:37:42.701Z,31.73
2018-11-22T23:40:13.004Z,30.52
2018-11-22T23:42:41.576Z,30.72
2018-11-22T23:45:11.219Z,31.15
2018-11-22T23:47:40.148Z,31.87
2018-11-22T23:50:10.244Z,30.15
2018-11-22T23:52:38.457Z,31.30
2018-11-22T23:55:07.170Z,29.00
2018-11-22T23:57:35.437Z,29.48
